Time;durP1;ratioP1;P1;durP2;ratioP2;P2;SDS_P1;SDS_P2;PMS_P1;PMS_P2;Temp;Humidity;BMP_temperature;BMP_pressure;BME280_temperature;BME280_humidity;BME280_pressure;Samples;Min_cycle;Max_cycle;Signal;HPM_P1;HPM_P2
2022/01/14 00:01:02;;;;;;;19.45;12.32;;;4.80;99.90;;;;;;5076231;28;20087;-73
2022/01/14 00:03:27;;;;;;;23.58;12.82;;;4.80;99.90;;;;;;5076228;28;20032;-73
2022/01/14 00:05:53;;;;;;;20.15;12.38;;;4.70;99.90;;;;;;5076473;28;20040;-74
2022/01/14 00:08:19;;;;;;;24.92;12.93;;;4.70;99.90;;;;;;5076188;28;20028;-72
2022/01/14 00:10:49;;;;;;;20.42;12.23;;;4.70;99.90;;;;;;5075971;28;20020;-73
2022/01/14 00:16:04;;;;;;;22.33;12.13;;;4.60;99.90;;;;;;5076385;28;20032;-73
2022/01/14 00:18:30;;;;;;;19.25;12.05;;;4.60;99.90;;;;;;5076215;28;20025;-74
2022/01/14 00:20:55;;;;;;;19.92;12.65;;;4.70;99.90;;;;;;5075850;28;20028;-74
2022/01/14 00:23:29;;;;;;;23.00;13.52;;;4.70;99.90;;;;;;5075884;28;20440;-75
2022/01/14 00:34:07;;;;;;;20.58;12.50;;;4.70;99.90;;;;;;5075990;28;20097;-75
2022/01/14 00:36:32;;;;;;;17.15;10.93;;;4.70;99.90;;;;;;5075653;28;20095;-73
2022/01/14 00:38:58;;;;;;;18.38;11.18;;;4.40;99.90;;;;;;5075627;28;20040;-73
2022/01/14 00:41:24;;;;;;;18.00;11.65;;;4.50;99.90;;;;;;5075522;28;20107;-74
2022/01/14 00:43:55;;;;;;;19.67;11.35;;;4.50;99.90;;;;;;5075821;28;20020;-74
2022/01/14 00:46:21;;;;;;;17.83;10.70;;;4.30;99.90;;;;;;5075822;28;20055;-74
2022/01/14 00:48:46;;;;;;;17.25;10.68;;;4.40;99.90;;;;;;5075441;28;20390;-74
2022/01/14 00:51:13;;;;;;;20.77;11.63;;;4.60;99.90;;;;;;5057420;28;20462;-74
2022/01/14 00:53:39;;;;;;;19.67;11.63;;;4.50;99.90;;;;;;5075291;28;20462;-74
2022/01/14 00:56:20;;;;;;;19.48;11.45;;;4.50;99.90;;;;;;5075354;28;20028;-73
2022/01/14 01:01:30;;;;;;;23.15;13.32;;;4.40;99.90;;;;;;5074904;28;20058;-73
2022/01/14 01:03:56;;;;;;;22.35;12.70;;;4.30;99.90;;;;;;5075090;28;20032;-73
2022/01/14 01:06:22;;;;;;;23.13;13.43;;;4.40;99.90;;;;;;5075141;28;20097;-73
2022/01/14 01:08:50;;;;;;;22.13;13.25;;;4.40;99.90;;;;;;5075070;28;20103;-73
2022/01/14 01:11:23;;;;;;;23.17;12.38;;;4.30;99.90;;;;;;5074820;28;20064;-74
2022/01/14 01:13:57;;;;;;;22.92;12.85;;;4.10;99.90;;;;;;5075261;28;20382;-73
2022/01/14 01:16:23;;;;;;;23.83;13.45;;;4.00;99.90;;;;;;5074984;28;20032;-74
2022/01/14 01:18:49;;;;;;;27.48;15.40;;;3.90;99.90;;;;;;5074828;28;20024;-73
2022/01/14 01:21:14;;;;;;;21.63;12.90;;;3.90;99.90;;;;;;5075012;28;20025;-73
2022/01/14 01:23:40;;;;;;;21.02;12.60;;;3.90;99.90;;;;;;5075092;28;20023;-73
2022/01/14 01:26:14;;;;;;;21.33;13.43;;;3.80;99.90;;;;;;5074693;28;20086;-74
2022/01/14 01:28:57;;;;;;;25.08;13.60;;;3.80;99.90;;;;;;5074724;28;20025;-74
2022/01/14 01:31:35;;;;;;;24.52;13.80;;;3.80;99.90;;;;;;5074645;28;20098;-74
2022/01/14 01:34:08;;;;;;;24.45;14.65;;;3.70;99.90;;;;;;5075137;28;20099;-73
2022/01/14 01:36:35;;;;;;;23.88;13.75;;;3.60;99.90;;;;;;5075059;28;20024;-74
2022/01/14 01:39:02;;;;;;;24.27;13.73;;;3.60;99.90;;;;;;5074455;28;20024;-74
2022/01/14 01:41:29;;;;;;;27.10;15.10;;;3.60;99.90;;;;;;5074299;28;20397;-74
2022/01/14 01:43:55;;;;;;;23.23;13.55;;;3.60;99.90;;;;;;5074383;28;20487;-73
2022/01/14 01:46:23;;;;;;;26.55;14.50;;;3.60;99.90;;;;;;5074285;28;20101;-74
2022/01/14 01:48:50;;;;;;;23.00;14.02;;;3.70;99.90;;;;;;5074243;28;20020;-73
2022/01/14 01:51:17;;;;;;;25.42;14.52;;;4.00;99.90;;;;;;5074219;28;20025;-72
2022/01/14 01:53:43;;;;;;;25.63;14.15;;;3.80;99.90;;;;;;5074445;28;20573;-72
2022/01/14 01:56:09;;;;;;;23.38;13.43;;;3.80;99.90;;;;;;5074076;28;20020;-73
2022/01/14 01:58:34;;;;;;;26.63;14.23;;;4.00;99.90;;;;;;5074329;28;20055;-73
2022/01/14 02:01:04;;;;;;;26.20;14.48;;;4.10;99.90;;;;;;5074220;28;20107;-74
2022/01/14 02:03:29;;;;;;;24.77;14.02;;;4.20;99.90;;;;;;5073924;28;20074;-73
2022/01/14 02:05:55;;;;;;;22.48;14.45;;;4.20;99.90;;;;;;5073226;28;20021;-74
2022/01/14 02:08:21;;;;;;;26.20;14.65;;;4.20;99.90;;;;;;5055896;28;20079;-74
2022/01/14 02:10:46;;;;;;;23.58;13.65;;;4.30;99.90;;;;;;5073641;28;20020;-73
2022/01/14 02:13:12;;;;;;;28.48;15.32;;;4.30;99.90;;;;;;5074131;28;20440;-73
2022/01/14 02:23:23;;;;;;;25.65;14.55;;;4.00;99.90;;;;;;5073397;28;20091;-73
2022/01/14 02:25:48;;;;;;;23.63;14.23;;;4.20;99.90;;;;;;5073602;28;20069;-72
2022/01/14 02:28:20;;;;;;;26.85;15.15;;;4.40;99.90;;;;;;5073534;28;20044;-73
2022/01/14 02:30:49;;;;;;;25.33;14.75;;;4.50;99.90;;;;;;5073833;28;20029;-73
2022/01/14 02:33:16;;;;;;;21.65;13.00;;;4.50;99.90;;;;;;5073482;28;20025;-73
2022/01/14 02:35:45;;;;;;;22.40;13.30;;;4.60;99.90;;;;;;5073497;28;20042;-74
2022/01/14 02:38:12;;;;;;;23.25;13.52;;;4.60;99.90;;;;;;5073723;28;20025;-73
2022/01/14 02:40:38;;;;;;;26.92;14.77;;;4.70;99.90;;;;;;5055443;28;20486;-74
2022/01/14 02:43:11;;;;;;;22.10;13.10;;;4.60;99.90;;;;;;5055386;28;20490;-73
2022/01/14 02:45:37;;;;;;;23.20;13.80;;;4.60;99.90;;;;;;5073334;28;20095;-74
2022/01/14 02:48:03;;;;;;;26.95;15.50;;;4.70;99.90;;;;;;5073311;28;20051;-74
2022/01/14 02:50:38;;;;;;;28.77;15.18;;;4.60;99.90;;;;;;5073475;28;20021;-72
2022/01/14 02:53:24;;;;;;;22.48;13.77;;;4.60;99.90;;;;;;5073587;28;20385;-73
2022/01/14 02:55:49;;;;;;;24.20;15.77;;;4.50;99.90;;;;;;5073258;28;20016;-73
2022/01/14 02:58:16;;;;;;;24.23;14.05;;;4.50;99.90;;;;;;5073169;28;20512;-72
2022/01/14 03:00:42;;;;;;;26.05;14.38;;;4.50;99.90;;;;;;5073105;28;20382;-73
2022/01/14 03:03:09;;;;;;;24.67;13.68;;;4.50;99.90;;;;;;5073296;28;20024;-73
2022/01/14 03:05:35;;;;;;;28.83;14.70;;;4.50;99.90;;;;;;5073349;28;20024;-74
2022/01/14 03:08:01;;;;;;;25.08;14.57;;;4.50;99.90;;;;;;5073636;28;20028;-74
2022/01/14 03:10:27;;;;;;;25.50;13.88;;;4.50;99.90;;;;;;5072788;28;20537;-74
2022/01/14 03:12:52;;;;;;;26.25;14.75;;;4.40;99.90;;;;;;5072621;28;20469;-74
2022/01/14 03:15:19;;;;;;;27.75;16.15;;;4.40;99.90;;;;;;5072963;28;20029;-73
2022/01/14 03:17:45;;;;;;;23.83;14.52;;;4.40;99.90;;;;;;5074535;28;20490;-74
2022/01/14 03:20:26;;;;;;;26.42;14.80;;;4.40;99.90;;;;;;5077111;28;20095;-73
2022/01/14 03:23:03;;;;;;;26.38;15.18;;;4.50;99.90;;;;;;5058750;28;20523;-73
2022/01/14 03:28:13;;;;;;;23.27;13.13;;;4.40;99.90;;;;;;5077327;28;20027;-73
2022/01/14 03:30:38;;;;;;;26.17;14.68;;;4.50;99.90;;;;;;5076905;28;20021;-73
2022/01/14 03:33:04;;;;;;;25.90;14.20;;;4.40;99.90;;;;;;5077175;28;20033;-74
2022/01/14 03:35:29;;;;;;;26.02;14.07;;;4.40;99.90;;;;;;5076836;28;20474;-74
2022/01/14 03:37:56;;;;;;;26.15;15.52;;;4.40;99.90;;;;;;5076784;28;20033;-74
2022/01/14 03:40:21;;;;;;;29.70;16.63;;;4.30;99.90;;;;;;5077028;28;20108;-73
2022/01/14 03:42:47;;;;;;;31.30;17.17;;;4.10;99.90;;;;;;5076621;28;20107;-74
2022/01/14 03:45:12;;;;;;;31.50;18.35;;;3.70;99.90;;;;;;5076927;28;20046;-75
2022/01/14 03:47:38;;;;;;;29.55;17.33;;;3.80;99.90;;;;;;5076838;28;20025;-73
2022/01/14 03:50:04;;;;;;;28.08;15.10;;;4.00;99.90;;;;;;5076855;28;20029;-74
2022/01/14 03:52:31;;;;;;;26.27;16.08;;;4.00;99.90;;;;;;5076491;28;20020;-74
2022/01/14 03:54:57;;;;;;;32.63;17.08;;;4.10;99.90;;;;;;5076461;28;20394;-74
2022/01/14 03:57:22;;;;;;;30.05;17.50;;;4.10;99.90;;;;;;5076405;28;20149;-73
2022/01/14 03:59:48;;;;;;;27.77;15.68;;;4.00;99.90;;;;;;5076355;28;20478;-73
2022/01/14 04:02:14;;;;;;;35.67;19.98;;;3.70;99.90;;;;;;5076226;28;20027;-73
2022/01/14 04:04:40;;;;;;;37.22;18.42;;;3.50;99.90;;;;;;5076165;28;20024;-74
2022/01/14 04:07:05;;;;;;;35.33;19.58;;;2.80;99.90;;;;;;5075872;28;20029;-73
2022/01/14 04:09:36;;;;;;;39.50;19.48;;;2.60;99.90;;;;;;5076169;28;20024;-73
2022/01/14 04:12:07;;;;;;;43.47;22.52;;;2.60;99.90;;;;;;5076112;28;20135;-73
2022/01/14 04:17:01;;;;;;;47.63;22.27;;;2.40;99.90;;;;;;5076012;28;20397;-74
2022/01/14 04:19:28;;;;;;;56.33;26.10;;;2.30;99.90;;;;;;5076011;28;20025;-73
2022/01/14 04:21:55;;;;;;;46.75;22.33;;;2.10;99.90;;;;;;5057960;28;20070;-72
2022/01/14 04:24:21;;;;;;;42.33;23.35;;;2.10;99.90;;;;;;5075934;28;20042;-74
2022/01/14 04:26:47;;;;;;;58.13;27.10;;;2.20;99.90;;;;;;5075839;28;20020;-73
2022/01/14 04:29:12;;;;;;;47.35;23.40;;;2.30;99.90;;;;;;5075107;28;20104;-73
2022/01/14 04:31:38;;;;;;;48.03;22.33;;;2.30;99.90;;;;;;5075764;28;20180;-75
2022/01/14 04:34:04;;;;;;;46.78;21.98;;;2.40;99.90;;;;;;5075727;28;20056;-74
2022/01/14 04:36:29;;;;;;;60.33;25.52;;;2.50;99.90;;;;;;5075697;28;20474;-73
2022/01/14 04:38:55;;;;;;;50.13;24.70;;;2.50;99.90;;;;;;5075631;28;20134;-74
2022/01/14 04:41:21;;;;;;;46.15;23.23;;;2.30;99.90;;;;;;5075542;28;20024;-72
2022/01/14 04:43:46;;;;;;;48.75;23.05;;;2.30;99.90;;;;;;5075582;28;20017;-73
2022/01/14 04:48:38;;;;;;;46.55;21.75;;;2.50;99.90;;;;;;5075763;28;20052;-73
2022/01/14 04:51:10;;;;;;;50.25;24.02;;;2.40;99.90;;;;;;5075448;28;20055;-73
2022/01/14 04:53:37;;;;;;;39.78;20.60;;;2.40;99.90;;;;;;5057403;28;20529;-72
2022/01/14 04:56:03;;;;;;;43.65;21.92;;;2.50;99.90;;;;;;5075346;28;20064;-73
2022/01/14 04:58:29;;;;;;;45.03;23.95;;;2.60;99.90;;;;;;5074648;28;20033;-74
2022/01/14 05:00:55;;;;;;;49.92;23.48;;;2.50;99.90;;;;;;5075144;28;20028;-73
2022/01/14 05:03:21;;;;;;;49.35;24.98;;;2.50;99.90;;;;;;5075314;28;20100;-74
2022/01/14 05:05:50;;;;;;;43.95;22.45;;;2.40;99.90;;;;;;5057139;28;20090;-74
2022/01/14 05:08:25;;;;;;;46.97;23.95;;;2.50;99.90;;;;;;5075094;28;20017;-73
2022/01/14 05:13:21;;;;;;;53.10;26.45;;;2.90;99.90;;;;;;5075049;28;20036;-75
2022/01/14 05:15:46;;;;;;;47.00;24.33;;;2.90;99.90;;;;;;5075223;28;20116;-74
2022/01/14 05:18:12;;;;;;;45.38;24.40;;;2.90;99.90;;;;;;5056942;28;20064;-74
2022/01/14 05:20:38;;;;;;;51.08;25.67;;;3.00;99.90;;;;;;5074863;28;20032;-73
2022/01/14 05:23:04;;;;;;;43.78;22.15;;;2.90;99.90;;;;;;5074759;28;20021;-73
2022/01/14 05:25:30;;;;;;;71.47;38.65;;;2.80;99.90;;;;;;5074770;28;20059;-72
2022/01/14 05:27:55;;;;;;;44.85;23.65;;;2.80;99.90;;;;;;5075019;28;20078;-74
2022/01/14 05:30:21;;;;;;;52.40;31.08;;;2.30;99.90;;;;;;5074654;28;20099;-74
2022/01/14 05:32:49;;;;;;;43.47;24.13;;;2.40;99.90;;;;;;5074896;28;20021;-74
2022/01/14 05:35:21;;;;;;;48.15;28.85;;;2.50;99.90;;;;;;5074607;28;20539;-74
2022/01/14 05:37:47;;;;;;;56.92;36.83;;;2.70;99.90;;;;;;5074511;28;20044;-73
2022/01/14 05:40:15;;;;;;;50.75;27.08;;;2.60;99.90;;;;;;5074447;28;20090;-73
2022/01/14 05:42:41;;;;;;;44.05;23.55;;;2.50;99.90;;;;;;5073654;28;20154;-74
2022/01/14 05:45:09;;;;;;;53.85;27.05;;;2.50;99.90;;;;;;5074339;28;20024;-74
2022/01/14 05:47:36;;;;;;;39.42;23.35;;;2.50;99.90;;;;;;5074822;28;20100;-73
2022/01/14 05:50:03;;;;;;;47.42;23.63;;;2.50;99.90;;;;;;5074537;28;20024;-73
2022/01/14 05:52:29;;;;;;;51.78;26.65;;;2.50;99.90;;;;;;5074077;28;20116;-74
2022/01/14 05:54:55;;;;;;;47.25;28.33;;;2.60;99.90;;;;;;5074407;28;20107;-72
2022/01/14 05:57:21;;;;;;;49.15;27.83;;;2.70;99.90;;;;;;5074110;28;20028;-73
2022/01/14 05:59:48;;;;;;;42.95;22.58;;;2.80;99.90;;;;;;5074297;28;20031;-73
2022/01/14 06:02:15;;;;;;;46.28;24.85;;;3.00;99.90;;;;;;5073933;28;20028;-73
2022/01/14 06:04:40;;;;;;;45.90;25.27;;;3.00;99.90;;;;;;5073908;28;20027;-73
2022/01/14 06:07:06;;;;;;;40.55;21.77;;;3.20;99.90;;;;;;5073660;28;20397;-74
2022/01/14 06:09:32;;;;;;;45.65;22.10;;;3.20;99.90;;;;;;5073872;28;20437;-74
2022/01/14 06:11:57;;;;;;;43.70;22.92;;;2.90;99.90;;;;;;5073930;28;20041;-73
2022/01/14 06:14:23;;;;;;;49.08;23.58;;;2.80;99.90;;;;;;5074125;28;20099;-74
2022/01/14 06:16:48;;;;;;;46.13;24.52;;;2.70;99.90;;;;;;5073752;28;20040;-73
2022/01/14 06:19:14;;;;;;;45.55;23.35;;;2.50;99.90;;;;;;5073980;28;20424;-73
2022/01/14 06:21:40;;;;;;;44.47;22.30;;;2.60;99.90;;;;;;5073596;28;20024;-72
2022/01/14 06:24:05;;;;;;;55.30;27.13;;;2.50;99.90;;;;;;5073344;28;20052;-74
2022/01/14 06:26:31;;;;;;;47.55;24.88;;;2.30;99.90;;;;;;5073592;28;20032;-72
2022/01/14 06:28:57;;;;;;;45.90;23.13;;;2.30;99.90;;;;;;5073617;28;20436;-73
2022/01/14 06:31:23;;;;;;;48.15;23.48;;;2.40;99.90;;;;;;5073553;28;20489;-74
2022/01/14 06:33:48;;;;;;;46.97;22.85;;;2.60;99.90;;;;;;5073463;28;20028;-73
2022/01/14 06:36:14;;;;;;;49.97;24.55;;;2.50;99.90;;;;;;5073463;28;20032;-74
2022/01/14 06:38:40;;;;;;;47.03;24.75;;;2.50;99.90;;;;;;5073441;28;20103;-73
2022/01/14 06:41:06;;;;;;;46.95;25.67;;;2.40;99.90;;;;;;5073576;28;20027;-74
2022/01/14 06:43:31;;;;;;;46.28;21.98;;;2.50;99.90;;;;;;5073356;28;20061;-72
2022/01/14 06:45:57;;;;;;;47.05;23.20;;;2.60;99.90;;;;;;5073355;28;20025;-72
2022/01/14 06:48:23;;;;;;;44.05;22.08;;;2.70;99.90;;;;;;5073311;28;20526;-73
2022/01/14 06:50:49;;;;;;;47.85;23.60;;;2.80;99.90;;;;;;5073258;28;20065;-72
2022/01/14 06:53:14;;;;;;;46.80;23.13;;;2.80;99.90;;;;;;5072901;28;20017;-73
2022/01/14 06:55:40;;;;;;;46.25;24.42;;;2.90;99.90;;;;;;5073212;28;20021;-73
2022/01/14 06:58:06;;;;;;;52.60;24.58;;;2.80;99.90;;;;;;5073201;28;20034;-73
2022/01/14 07:00:33;;;;;;;50.65;25.05;;;2.50;99.90;;;;;;5073465;28;20020;-73
2022/01/14 07:03:00;;;;;;;50.47;24.52;;;2.50;99.90;;;;;;5073538;28;20021;-73
2022/01/14 07:05:26;;;;;;;49.80;23.92;;;2.40;99.90;;;;;;5073376;28;20029;-74
2022/01/14 07:07:51;;;;;;;55.90;25.70;;;2.40;99.90;;;;;;5073095;28;20048;-75
2022/01/14 07:10:17;;;;;;;48.58;22.90;;;2.40;99.90;;;;;;5055034;28;20024;-74
2022/01/14 07:12:44;;;;;;;55.15;26.13;;;2.50;99.90;;;;;;5072967;28;20474;-73
2022/01/14 07:15:17;;;;;;;55.63;27.63;;;2.40;99.90;;;;;;5072845;28;20048;-73
2022/01/14 07:17:43;;;;;;;50.55;23.70;;;2.50;99.90;;;;;;5073028;28;20013;-72
2022/01/14 07:20:13;;;;;;;53.63;26.45;;;2.50;99.90;;;;;;5073585;28;20024;-74
2022/01/14 07:22:43;;;;;;;54.30;27.67;;;2.50;99.90;;;;;;5072928;28;20473;-73
2022/01/14 07:25:09;;;;;;;;;;;2.50;99.90;;;;;;5073642;28;20074;-73
2022/01/14 07:27:36;;;;;;;48.45;24.40;;;2.50;99.90;;;;;;5072923;28;19908;-72
2022/01/14 07:30:04;;;;;;;50.92;25.35;;;2.40;99.90;;;;;;5073447;28;20017;-74
2022/01/14 07:32:29;;;;;;;44.22;23.75;;;2.50;99.90;;;;;;5072790;28;20394;-73
2022/01/14 07:34:55;;;;;;;50.50;25.10;;;2.50;99.90;;;;;;5072854;28;20024;-74
2022/01/14 07:37:20;;;;;;;74.70;34.33;;;2.50;99.90;;;;;;5054849;28;20024;-74
2022/01/14 07:39:46;;;;;;;94.50;40.15;;;2.50;99.90;;;;;;5073063;28;20528;-74
2022/01/14 07:42:12;;;;;;;80.95;42.35;;;2.50;99.90;;;;;;5073272;28;20036;-72
2022/01/14 07:44:38;;;;;;;74.68;37.63;;;2.40;99.90;;;;;;5072762;28;20390;-74
2022/01/14 07:47:05;;;;;;;51.85;27.75;;;2.60;99.90;;;;;;5054758;28;20514;-73
2022/01/14 07:49:31;;;;;;;49.45;24.70;;;2.60;99.90;;;;;;5073247;28;20497;-74
2022/01/14 07:51:57;;;;;;;45.40;24.08;;;2.70;99.90;;;;;;5072668;28;20028;-72
2022/01/14 07:54:23;;;;;;;43.05;24.00;;;2.70;99.90;;;;;;5072648;28;20486;-74
2022/01/14 07:56:52;;;;;;;44.60;22.40;;;2.60;99.90;;;;;;5072922;28;20042;-74
2022/01/14 07:59:21;;;;;;;46.70;23.27;;;2.50;99.90;;;;;;5072925;28;20021;-74
2022/01/14 08:01:49;;;;;;;52.08;23.65;;;2.40;99.90;;;;;;5072461;28;20111;-73
2022/01/14 08:04:16;;;;;;;46.38;23.38;;;2.30;99.90;;;;;;5073147;28;20458;-76
2022/01/14 08:06:48;;;;;;;52.03;25.80;;;2.30;99.90;;;;;;5076256;28;20016;-75
2022/01/14 08:09:15;;;;;;;48.65;25.42;;;2.20;99.90;;;;;;5076518;28;20414;-75
2022/01/14 08:11:41;;;;;;;58.90;32.40;;;1.90;99.90;;;;;;5075957;28;20105;-74
2022/01/14 08:14:07;;;;;;;55.28;28.75;;;2.00;99.90;;;;;;5076653;28;20033;-75
2022/01/14 08:16:33;;;;;;;56.58;29.50;;;1.70;99.90;;;;;;5076349;28;20085;-72
2022/01/14 08:18:58;;;;;;;56.83;30.40;;;1.90;99.90;;;;;;5076296;28;20029;-74
2022/01/14 08:21:24;;;;;;;53.05;28.73;;;1.80;99.90;;;;;;5075955;28;20064;-75
2022/01/14 08:23:50;;;;;;;49.05;23.15;;;1.90;99.90;;;;;;5075967;28;20016;-73
2022/01/14 08:26:16;;;;;;;55.78;29.17;;;2.10;99.90;;;;;;5075907;28;20028;-73
2022/01/14 08:28:42;;;;;;;57.15;30.23;;;2.00;99.90;;;;;;5076176;28;20024;-75
2022/01/14 08:31:07;;;;;;;61.15;31.52;;;1.80;99.90;;;;;;5075815;28;20021;-73
2022/01/14 08:33:33;;;;;;;55.15;32.97;;;1.80;99.90;;;;;;5075576;28;20025;-74
2022/01/14 08:35:59;;;;;;;62.70;33.67;;;1.70;99.90;;;;;;5075717;28;20539;-72
2022/01/14 08:38:24;;;;;;;49.92;26.05;;;1.80;99.90;;;;;;5075361;28;20028;-73
2022/01/14 08:40:50;;;;;;;60.92;31.70;;;1.90;99.90;;;;;;5075804;28;20098;-72
2022/01/14 08:43:16;;;;;;;55.22;32.50;;;1.90;99.90;;;;;;5075499;28;20027;-72
2022/01/14 08:45:42;;;;;;;63.78;35.92;;;1.90;99.90;;;;;;5075779;28;20446;-73
2022/01/14 08:48:08;;;;;;;57.92;31.02;;;2.10;99.90;;;;;;5075235;28;20012;-73
2022/01/14 08:50:36;;;;;;;52.75;27.17;;;1.90;99.90;;;;;;5075480;28;20059;-75
2022/01/14 08:53:08;;;;;;;46.53;24.83;;;2.10;99.90;;;;;;5075711;28;20025;-74
2022/01/14 08:55:35;;;;;;;49.75;24.67;;;2.30;99.90;;;;;;5075180;28;20405;-73
2022/01/14 08:58:01;;;;;;;43.25;23.23;;;2.50;99.90;;;;;;5075320;28;20024;-73
2022/01/14 09:00:27;;;;;;;41.55;22.10;;;2.60;99.90;;;;;;5075279;28;20044;-74
2022/01/14 09:02:54;;;;;;;40.40;21.20;;;2.80;99.90;;;;;;5075088;28;20071;-73
2022/01/14 09:05:20;;;;;;;42.35;21.92;;;2.90;99.90;;;;;;5075154;28;20394;-75
2022/01/14 09:07:47;;;;;;;42.15;21.67;;;3.00;99.90;;;;;;5074424;28;20420;-79
2022/01/14 09:10:13;;;;;;;47.15;24.17;;;3.00;99.90;;;;;;5075375;28;20103;-73
2022/01/14 09:12:40;;;;;;;44.85;22.90;;;2.80;99.90;;;;;;5074746;28;20057;-73
2022/01/14 09:15:07;;;;;;;47.95;24.00;;;2.70;99.90;;;;;;5075067;28;20029;-74
2022/01/14 09:17:34;;;;;;;47.08;24.00;;;2.60;99.90;;;;;;5075249;28;20028;-73
2022/01/14 09:20:02;;;;;;;51.22;25.48;;;2.60;99.90;;;;;;5074949;28;20074;-75
2022/01/14 09:22:30;;;;;;;48.83;23.50;;;2.30;99.90;;;;;;5074802;28;20028;-74
2022/01/14 09:24:58;;;;;;;43.97;22.30;;;2.30;99.90;;;;;;5074832;28;20058;-74
2022/01/14 09:27:23;;;;;;;47.67;23.88;;;2.40;99.90;;;;;;5074795;28;20027;-74
2022/01/14 09:29:49;;;;;;;51.25;25.30;;;2.50;99.90;;;;;;5074983;28;20017;-77
2022/01/14 09:32:15;;;;;;;50.58;24.45;;;2.10;99.90;;;;;;5075188;28;20025;-75
2022/01/14 09:34:40;;;;;;;45.08;23.05;;;2.00;99.90;;;;;;5074513;28;20021;-76
2022/01/14 09:37:06;;;;;;;45.75;23.63;;;2.20;99.90;;;;;;5074533;28;20020;-75
2022/01/14 09:39:33;;;;;;;45.58;22.63;;;2.20;99.90;;;;;;5074810;28;20031;-76
2022/01/14 09:42:00;;;;;;;42.42;22.88;;;2.40;99.90;;;;;;5074677;28;20033;-76
2022/01/14 09:44:25;;;;;;;41.80;23.17;;;2.60;99.90;;;;;;5074373;28;20025;-76
2022/01/14 09:46:52;;;;;;;42.90;22.52;;;2.60;99.90;;;;;;5074912;28;20027;-77
2022/01/14 09:49:19;;;;;;;40.15;22.38;;;2.80;99.90;;;;;;5074305;28;20020;-76
2022/01/14 09:51:46;;;;;;;44.03;22.75;;;3.10;99.90;;;;;;5074483;28;20040;-74
2022/01/14 09:54:13;;;;;;;45.85;27.08;;;3.30;99.90;;;;;;5074475;28;20025;-74
2022/01/14 09:56:41;;;;;;;42.50;23.17;;;3.50;99.90;;;;;;5074124;28;20040;-73
2022/01/14 09:59:07;;;;;;;44.63;22.35;;;3.50;99.90;;;;;;5074120;28;20386;-73
2022/01/14 10:01:43;;;;;;;43.85;21.42;;;3.50;99.90;;;;;;5074274;28;20367;-72
2022/01/14 10:04:14;;;;;;;39.33;21.67;;;3.50;99.90;;;;;;5074241;28;20025;-75
2022/01/14 10:06:41;;;;;;;47.25;23.27;;;3.50;99.90;;;;;;5074014;28;20389;-75
2022/01/14 10:09:21;;;;;;;47.75;24.50;;;3.50;99.90;;;;;;5073936;28;20091;-74
2022/01/14 10:12:00;;;;;;;43.40;24.98;;;3.70;99.90;;;;;;5073918;28;20106;-75
2022/01/14 10:14:27;;;;;;;42.70;24.13;;;3.80;99.90;;;;;;5073864;28;20025;-75
2022/01/14 10:16:57;;;;;;;41.90;22.20;;;3.80;99.90;;;;;;5073792;28;20021;-74
2022/01/14 10:19:25;;;;;;;44.30;22.65;;;3.80;99.90;;;;;;5055588;28;20028;-75
2022/01/14 10:21:52;;;;;;;42.92;23.40;;;3.60;99.90;;;;;;5073875;28;20024;-75
2022/01/14 10:24:19;;;;;;;49.65;26.92;;;3.60;99.90;;;;;;5073644;28;20027;-75
2022/01/14 10:26:49;;;;;;;63.95;35.63;;;3.70;99.90;;;;;;5073148;28;20482;-74
2022/01/14 10:29:14;;;;;;;54.70;27.70;;;3.70;99.90;;;;;;5073546;28;20028;-75
2022/01/14 10:31:43;;;;;;;47.83;25.00;;;3.70;99.90;;;;;;5073814;28;20381;-74
2022/01/14 10:34:14;;;;;;;63.65;33.58;;;3.70;99.90;;;;;;5073699;28;20020;-72
2022/01/14 10:36:45;;;;;;;42.45;22.92;;;3.70;99.90;;;;;;5073739;28;20073;-74
2022/01/14 10:39:24;;;;;;;39.78;22.15;;;3.70;99.90;;;;;;5073491;28;20036;-76
2022/01/14 10:41:52;;;;;;;44.00;24.43;;;3.60;99.90;;;;;;5055207;28;20029;-74
2022/01/14 10:44:30;;;;;;;41.63;22.50;;;3.50;99.90;;;;;;5073351;28;20273;-72
2022/01/14 10:47:17;;;;;;;46.80;25.52;;;3.40;99.90;;;;;;5073857;28;20055;-74
2022/01/14 10:49:48;;;;;;;60.08;30.58;;;3.40;99.90;;;;;;5073982;28;20024;-75
2022/01/14 10:52:18;;;;;;;44.55;23.88;;;3.60;99.90;;;;;;5073278;28;20075;-76
2022/01/14 10:54:47;;;;;;;48.15;25.83;;;3.80;99.90;;;;;;5073315;28;20081;-77
2022/01/14 10:57:28;;;;;;;38.58;21.38;;;4.00;99.90;;;;;;5073205;28;20028;-76
2022/01/14 10:59:57;;;;;;;39.92;22.60;;;4.20;99.90;;;;;;5073858;28;20043;-75
2022/01/14 11:02:41;;;;;;;65.22;34.45;;;4.30;99.90;;;;;;5073414;28;20021;-74
2022/01/14 11:05:16;;;;;;;54.95;31.05;;;4.30;99.90;;;;;;5054919;28;20029;-75
2022/01/14 11:07:43;;;;;;;42.85;22.08;;;4.50;99.90;;;;;;5055158;28;20043;-77
2022/01/14 11:10:25;;;;;;;40.78;21.95;;;4.50;99.90;;;;;;5073099;28;20085;-75
2022/01/14 11:12:53;;;;;;;41.95;22.38;;;4.40;99.90;;;;;;5072793;28;20502;-75
2022/01/14 11:15:20;;;;;;;38.15;22.50;;;4.50;99.90;;;;;;5073320;28;20039;-74
2022/01/14 11:17:50;;;;;;;44.17;21.35;;;4.70;99.90;;;;;;5055035;28;20517;-74
2022/01/14 11:20:23;;;;;;;;;;;4.90;99.90;;;;;;5073500;28;20466;-74
2022/01/14 11:25:38;;;;;;;40.13;21.58;;;4.60;99.90;;;;;;5073286;28;20538;-75
2022/01/14 11:28:06;;;;;;;40.60;23.35;;;4.70;99.90;;;;;;5073245;28;20020;-76
2022/01/14 11:30:38;;;;;;;49.92;28.25;;;4.30;99.90;;;;;;5072934;28;20462;-75
2022/01/14 11:33:05;;;;;;;41.72;21.38;;;4.30;99.90;;;;;;5073217;28;20056;-73
2022/01/14 11:35:32;;;;;;;42.88;22.63;;;4.30;99.90;;;;;;5073425;28;20016;-75
2022/01/14 11:37:59;;;;;;;41.75;23.05;;;4.50;99.90;;;;;;5073251;28;20082;-77
2022/01/14 11:40:26;;;;;;;43.13;23.38;;;4.40;99.90;;;;;;5076806;28;20039;-74
2022/01/14 11:42:59;;;;;;;43.20;22.67;;;4.40;99.90;;;;;;5076687;28;20029;-77
2022/01/14 11:45:42;;;;;;;44.95;24.23;;;4.40;99.90;;;;;;5077325;28;20031;-74
2022/01/14 11:48:37;;;;;;;45.15;24.52;;;4.40;99.90;;;;;;5076650;28;20078;-78
2022/01/14 11:51:05;;;;;;;43.92;24.77;;;4.40;99.90;;;;;;5077131;28;20045;-75
2022/01/14 11:53:42;;;;;;;45.08;25.48;;;4.30;99.90;;;;;;5076524;28;20547;-74
2022/01/14 11:56:31;;;;;;;51.78;27.35;;;4.20;99.90;;;;;;5076833;28;20019;-76
2022/01/14 11:59:18;;;;;;;57.53;31.45;;;4.00;99.90;;;;;;5076446;28;20045;-77
2022/01/14 12:01:55;;;;;;;49.50;30.27;;;4.10;99.90;;;;;;5058398;28;20020;-75
2022/01/14 12:04:22;;;;;;;42.78;24.42;;;4.10;99.90;;;;;;5076437;28;20043;-75
2022/01/14 12:06:50;;;;;;;49.22;29.27;;;4.30;99.90;;;;;;5076815;28;20050;-75
2022/01/14 12:09:23;;;;;;;47.90;26.52;;;4.40;99.90;;;;;;5076229;28;20448;-75
2022/01/14 12:12:21;;;;;;;48.63;25.98;;;4.60;99.90;;;;;;5076274;28;20080;-74
2022/01/14 12:14:55;;;;;;;43.53;23.50;;;4.70;99.90;;;;;;5076683;28;20064;-76
2022/01/14 12:17:31;;;;;;;38.30;21.48;;;4.70;99.90;;;;;;5076416;28;20081;-75
2022/01/14 12:20:05;;;;;;;38.45;20.77;;;4.50;99.90;;;;;;5076583;28;20028;-76
2022/01/14 12:22:31;;;;;;;39.88;22.05;;;4.30;99.90;;;;;;5076195;28;20028;-75
2022/01/14 12:24:58;;;;;;;42.63;22.25;;;4.00;99.90;;;;;;5075947;28;20397;-77
2022/01/14 12:27:25;;;;;;;36.67;21.38;;;4.10;99.90;;;;;;5075893;28;20016;-74
2022/01/14 12:30:07;;;;;;;40.55;22.08;;;4.20;99.90;;;;;;5075857;28;20024;-74
2022/01/14 12:32:41;;;;;;;40.33;22.10;;;3.90;99.90;;;;;;5076395;28;20088;-75
2022/01/14 12:35:14;;;;;;;37.97;21.52;;;3.80;99.90;;;;;;5076059;28;20036;-75
2022/01/14 12:37:43;;;;;;;42.97;22.23;;;3.70;99.90;;;;;;5076033;28;20017;-73
2022/01/14 12:40:14;;;;;;;41.42;21.27;;;3.80;99.90;;;;;;5075695;28;20020;-77
2022/01/14 12:42:44;;;;;;;37.85;20.33;;;3.80;99.90;;;;;;5075555;28;20489;-74
2022/01/14 12:45:12;;;;;;;37.83;20.83;;;3.80;99.90;;;;;;5075577;28;20052;-73
2022/01/14 12:47:41;;;;;;;39.25;21.80;;;3.90;99.90;;;;;;5075839;28;20095;-76
2022/01/14 12:50:10;;;;;;;38.00;20.90;;;3.90;99.90;;;;;;5074956;28;20103;-75
2022/01/14 12:52:47;;;;;;;43.55;22.58;;;3.90;99.90;;;;;;5075604;28;20485;-76
2022/01/14 12:55:15;;;;;;;42.65;22.92;;;3.60;99.90;;;;;;5075350;28;20382;-75
2022/01/14 12:57:41;;;;;;;40.88;22.80;;;3.80;99.90;;;;;;5075330;28;20078;-75
2022/01/14 13:00:09;;;;;;;39.47;21.45;;;3.90;99.90;;;;;;5075463;28;20366;-76
2022/01/14 13:02:34;;;;;;;42.40;22.55;;;3.90;99.90;;;;;;5056679;28;20074;-73
2022/01/14 13:05:14;;;;;;;44.03;24.13;;;3.90;99.90;;;;;;5075337;28;20024;-74
2022/01/14 13:07:40;;;;;;;41.17;23.08;;;3.90;99.90;;;;;;5075217;28;20361;-74
2022/01/14 13:10:08;;;;;;;43.60;23.20;;;3.90;99.90;;;;;;5075094;28;20070;-74
2022/01/14 13:12:39;;;;;;;42.88;23.67;;;4.10;99.90;;;;;;5085047;28;20080;-76
2022/01/14 13:15:07;;;;;;;47.70;24.27;;;4.20;99.90;;;;;;5095341;28;20024;-74
2022/01/14 13:17:40;;;;;;;44.17;23.90;;;4.20;99.90;;;;;;5095491;28;20028;-74